sensor_id;sensor_type;location;lat;lon;timestamp;P1;P2;P0
54587;PMS7003;40484;50.198;19.576;2023-04-29T00:00:48;13;13;10
54587;PMS7003;40484;50.198;19.576;2023-04-29T00:08:44;19;16;13
54587;PMS7003;40484;50.198;19.576;2023-04-29T00:13:46;18;16;11
54587;PMS7003;40484;50.198;19.576;2023-04-29T00:18:47;18;16;11
54587;PMS7003;40484;50.198;19.576;2023-04-29T00:23:49;15;14;11
54587;PMS7003;40484;50.198;19.576;2023-04-29T00:28:51;16;15;10
54587;PMS7003;40484;50.198;19.576;2023-04-29T00:33:52;16;16;13
54587;PMS7003;40484;50.198;19.576;2023-04-29T00:38:54;20;16;13
54587;PMS7003;40484;50.198;19.576;2023-04-29T00:43:55;15;14;10
54587;PMS7003;40484;50.198;19.576;2023-04-29T00:48:56;9;9;8
54587;PMS7003;40484;50.198;19.576;2023-04-29T00:53:58;16;14;9
54587;PMS7003;40484;50.198;19.576;2023-04-29T00:59:00;13;13;10
54587;PMS7003;40484;50.198;19.576;2023-04-29T01:04:04;18;16;10
54587;PMS7003;40484;50.198;19.576;2023-04-29T01:09:20;19;17;12
54587;PMS7003;40484;50.198;19.576;2023-04-29T01:14:28;15;15;11
54587;PMS7003;40484;50.198;19.576;2023-04-29T01:25:08;18;18;12
54587;PMS7003;40484;50.198;19.576;2023-04-29T01:40:36;18;16;10
54587;PMS7003;40484;50.198;19.576;2023-04-29T01:45:44;17;16;12
54587;PMS7003;40484;50.198;19.576;2023-04-29T01:50:46;17;13;10
54587;PMS7003;40484;50.198;19.576;2023-04-29T01:55:47;20;13;10
54587;PMS7003;40484;50.198;19.576;2023-04-29T02:00:49;12;11;10
54587;PMS7003;40484;50.198;19.576;2023-04-29T02:05:50;15;14;10
54587;PMS7003;40484;50.198;19.576;2023-04-29T02:10:56;17;16;12
54587;PMS7003;40484;50.198;19.576;2023-04-29T02:16:08;17;16;11
54587;PMS7003;40484;50.198;19.576;2023-04-29T02:21:11;19;18;13
54587;PMS7003;40484;50.198;19.576;2023-04-29T02:26:12;15;15;12
54587;PMS7003;40484;50.198;19.576;2023-04-29T02:31:15;15;15;12
54587;PMS7003;40484;50.198;19.576;2023-04-29T02:36:41;15;15;11
54587;PMS7003;40484;50.198;19.576;2023-04-29T02:41:42;18;15;13
54587;PMS7003;40484;50.198;19.576;2023-04-29T02:46:44;14;13;11
54587;PMS7003;40484;50.198;19.576;2023-04-29T02:51:46;15;14;10
54587;PMS7003;40484;50.198;19.576;2023-04-29T02:56:49;14;14;10
54587;PMS7003;40484;50.198;19.576;2023-04-29T03:01:50;14;14;11
54587;PMS7003;40484;50.198;19.576;2023-04-29T03:06:54;14;14;12
54587;PMS7003;40484;50.198;19.576;2023-04-29T03:11:56;13;13;10
54587;PMS7003;40484;50.198;19.576;2023-04-29T03:16:58;14;13;10
54587;PMS7003;40484;50.198;19.576;2023-04-29T03:21:59;14;14;11
54587;PMS7003;40484;50.198;19.576;2023-04-29T03:27:01;13;13;11
54587;PMS7003;40484;50.198;19.576;2023-04-29T03:32:03;17;16;11
54587;PMS7003;40484;50.198;19.576;2023-04-29T03:37:05;14;14;9
54587;PMS7003;40484;50.198;19.576;2023-04-29T03:42:06;15;14;11
54587;PMS7003;40484;50.198;19.576;2023-04-29T03:47:08;19;18;14
54587;PMS7003;40484;50.198;19.576;2023-04-29T03:52:09;19;14;12
54587;PMS7003;40484;50.198;19.576;2023-04-29T03:57:12;16;15;11
54587;PMS7003;40484;50.198;19.576;2023-04-29T04:02:13;20;20;16
54587;PMS7003;40484;50.198;19.576;2023-04-29T04:07:15;19;18;14
54587;PMS7003;40484;50.198;19.576;2023-04-29T04:12:16;14;13;11
54587;PMS7003;40484;50.198;19.576;2023-04-29T04:17:18;26;23;17
54587;PMS7003;40484;50.198;19.576;2023-04-29T04:22:45;17;17;13
54587;PMS7003;40484;50.198;19.576;2023-04-29T04:27:46;19;15;11
54587;PMS7003;40484;50.198;19.576;2023-04-29T04:32:48;17;17;12
54587;PMS7003;40484;50.198;19.576;2023-04-29T04:37:49;21;19;14
54587;PMS7003;40484;50.198;19.576;2023-04-29T04:42:51;17;16;13
54587;PMS7003;40484;50.198;19.576;2023-04-29T04:47:52;17;16;13
54587;PMS7003;40484;50.198;19.576;2023-04-29T04:52:54;19;18;12
54587;PMS7003;40484;50.198;19.576;2023-04-29T04:57:56;19;14;11
54587;PMS7003;40484;50.198;19.576;2023-04-29T05:02:58;13;13;10
54587;PMS7003;40484;50.198;19.576;2023-04-29T05:07:59;13;12;10
54587;PMS7003;40484;50.198;19.576;2023-04-29T05:13:01;15;15;12
54587;PMS7003;40484;50.198;19.576;2023-04-29T05:18:03;14;13;11
54587;PMS7003;40484;50.198;19.576;2023-04-29T05:23:04;15;14;11
54587;PMS7003;40484;50.198;19.576;2023-04-29T05:28:06;20;17;13
54587;PMS7003;40484;50.198;19.576;2023-04-29T05:33:07;15;14;10
54587;PMS7003;40484;50.198;19.576;2023-04-29T05:38:08;13;13;10
54587;PMS7003;40484;50.198;19.576;2023-04-29T05:43:10;19;15;12
54587;PMS7003;40484;50.198;19.576;2023-04-29T05:48:12;14;13;10
54587;PMS7003;40484;50.198;19.576;2023-04-29T05:53:14;19;18;13
54587;PMS7003;40484;50.198;19.576;2023-04-29T05:58:15;20;19;15
54587;PMS7003;40484;50.198;19.576;2023-04-29T06:03:17;12;12;9
54587;PMS7003;40484;50.198;19.576;2023-04-29T06:08:18;18;13;10
54587;PMS7003;40484;50.198;19.576;2023-04-29T06:13:45;13;13;9
54587;PMS7003;40484;50.198;19.576;2023-04-29T06:18:46;15;15;12
54587;PMS7003;40484;50.198;19.576;2023-04-29T06:23:47;15;15;11
54587;PMS7003;40484;50.198;19.576;2023-04-29T06:28:49;17;16;13
54587;PMS7003;40484;50.198;19.576;2023-04-29T06:33:51;16;13;10
54587;PMS7003;40484;50.198;19.576;2023-04-29T06:38:53;14;14;11
54587;PMS7003;40484;50.198;19.576;2023-04-29T06:43:55;13;12;10
54587;PMS7003;40484;50.198;19.576;2023-04-29T06:48:56;9;9;7
54587;PMS7003;40484;50.198;19.576;2023-04-29T06:53:58;15;14;12
54587;PMS7003;40484;50.198;19.576;2023-04-29T06:58:59;13;13;10
54587;PMS7003;40484;50.198;19.576;2023-04-29T07:04:01;13;13;11
54587;PMS7003;40484;50.198;19.576;2023-04-29T07:09:03;15;15;10
54587;PMS7003;40484;50.198;19.576;2023-04-29T07:14:04;19;15;12
54587;PMS7003;40484;50.198;19.576;2023-04-29T07:19:06;17;15;11
54587;PMS7003;40484;50.198;19.576;2023-04-29T07:24:08;17;15;12
54587;PMS7003;40484;50.198;19.576;2023-04-29T07:29:09;14;13;10
54587;PMS7003;40484;50.198;19.576;2023-04-29T07:34:11;15;13;10
54587;PMS7003;40484;50.198;19.576;2023-04-29T07:39:13;15;13;10
54587;PMS7003;40484;50.198;19.576;2023-04-29T07:44:15;11;11;7
54587;PMS7003;40484;50.198;19.576;2023-04-29T07:49:17;15;13;10
54587;PMS7003;40484;50.198;19.576;2023-04-29T07:54:18;19;15;10
54587;PMS7003;40484;50.198;19.576;2023-04-29T07:59:20;11;11;8
54587;PMS7003;40484;50.198;19.576;2023-04-29T08:04:46;18;18;13
54587;PMS7003;40484;50.198;19.576;2023-04-29T08:09:47;11;11;9
54587;PMS7003;40484;50.198;19.576;2023-04-29T08:14:49;10;10;8
54587;PMS7003;40484;50.198;19.576;2023-04-29T08:19:50;10;9;8
54587;PMS7003;40484;50.198;19.576;2023-04-29T08:24:51;11;11;9
54587;PMS7003;40484;50.198;19.576;2023-04-29T08:29:53;10;10;7
54587;PMS7003;40484;50.198;19.576;2023-04-29T08:34:55;16;15;12
54587;PMS7003;40484;50.198;19.576;2023-04-29T08:39:57;16;14;10
54587;PMS7003;40484;50.198;19.576;2023-04-29T08:44:58;16;16;13
54587;PMS7003;40484;50.198;19.576;2023-04-29T08:50:02;19;18;13
54587;PMS7003;40484;50.198;19.576;2023-04-29T08:55:04;14;11;8
54587;PMS7003;40484;50.198;19.576;2023-04-29T09:00:07;11;10;7
54587;PMS7003;40484;50.198;19.576;2023-04-29T09:05:10;23;20;14
54587;PMS7003;40484;50.198;19.576;2023-04-29T09:10:12;34;31;21
54587;PMS7003;40484;50.198;19.576;2023-04-29T09:15:15;22;22;17
54587;PMS7003;40484;50.198;19.576;2023-04-29T09:25:23;14;14;12
54587;PMS7003;40484;50.198;19.576;2023-04-29T09:30:26;12;12;9
54587;PMS7003;40484;50.198;19.576;2023-04-29T09:35:29;12;11;9
54587;PMS7003;40484;50.198;19.576;2023-04-29T09:40:58;14;13;10
54587;PMS7003;40484;50.198;19.576;2023-04-29T09:45:59;13;13;10
54587;PMS7003;40484;50.198;19.576;2023-04-29T09:51:01;17;16;11
54587;PMS7003;40484;50.198;19.576;2023-04-29T09:56:03;12;11;9
54587;PMS7003;40484;50.198;19.576;2023-04-29T10:01:05;16;15;12
54587;PMS7003;40484;50.198;19.576;2023-04-29T10:06:07;16;14;11
54587;PMS7003;40484;50.198;19.576;2023-04-29T10:11:09;16;15;11
54587;PMS7003;40484;50.198;19.576;2023-04-29T10:16:14;14;13;9
54587;PMS7003;40484;50.198;19.576;2023-04-29T10:21:20;13;13;10
54587;PMS7003;40484;50.198;19.576;2023-04-29T10:26:30;16;15;12
54587;PMS7003;40484;50.198;19.576;2023-04-29T10:31:35;12;12;9
54587;PMS7003;40484;50.198;19.576;2023-04-29T10:36:37;10;10;8
54587;PMS7003;40484;50.198;19.576;2023-04-29T10:41:43;11;11;7
54587;PMS7003;40484;50.198;19.576;2023-04-29T10:46:46;9;9;7
54587;PMS7003;40484;50.198;19.576;2023-04-29T10:51:48;12;12;11
54587;PMS7003;40484;50.198;19.576;2023-04-29T10:56:50;9;9;8
54587;PMS7003;40484;50.198;19.576;2023-04-29T11:01:53;16;14;10
54587;PMS7003;40484;50.198;19.576;2023-04-29T11:07:25;13;13;11
54587;PMS7003;40484;50.198;19.576;2023-04-29T11:12:28;11;11;9
54587;PMS7003;40484;50.198;19.576;2023-04-29T11:17:36;17;16;11
54587;PMS7003;40484;50.198;19.576;2023-04-29T11:22:38;22;20;16
54587;PMS7003;40484;50.198;19.576;2023-04-29T11:27:40;17;15;11
54587;PMS7003;40484;50.198;19.576;2023-04-29T11:32:42;16;15;13
54587;PMS7003;40484;50.198;19.576;2023-04-29T11:37:44;21;20;15
54587;PMS7003;40484;50.198;19.576;2023-04-29T11:42:47;14;13;10
54587;PMS7003;40484;50.198;19.576;2023-04-29T11:47:49;24;15;12
54587;PMS7003;40484;50.198;19.576;2023-04-29T11:52:51;16;15;12
54587;PMS7003;40484;50.198;19.576;2023-04-29T11:57:52;17;17;11
54587;PMS7003;40484;50.198;19.576;2023-04-29T12:02:54;16;14;11
54587;PMS7003;40484;50.198;19.576;2023-04-29T12:07:55;13;12;10
54587;PMS7003;40484;50.198;19.576;2023-04-29T12:12:57;13;13;9
54587;PMS7003;40484;50.198;19.576;2023-04-29T12:18:00;20;18;14
54587;PMS7003;40484;50.198;19.576;2023-04-29T12:23:11;26;22;16
54587;PMS7003;40484;50.198;19.576;2023-04-29T12:28:13;16;16;12
54587;PMS7003;40484;50.198;19.576;2023-04-29T12:33:43;21;20;17
54587;PMS7003;40484;50.198;19.576;2023-04-29T12:38:46;20;18;13
54587;PMS7003;40484;50.198;19.576;2023-04-29T12:43:49;20;20;13
54587;PMS7003;40484;50.198;19.576;2023-04-29T12:48:51;24;23;17
54587;PMS7003;40484;50.198;19.576;2023-04-29T12:53:53;23;22;16
54587;PMS7003;40484;50.198;19.576;2023-04-29T12:58:55;25;25;17
54587;PMS7003;40484;50.198;19.576;2023-04-29T13:03:57;45;38;23
54587;PMS7003;40484;50.198;19.576;2023-04-29T13:08:58;45;37;23
54587;PMS7003;40484;50.198;19.576;2023-04-29T13:14:00;38;34;21
54587;PMS7003;40484;50.198;19.576;2023-04-29T13:19:01;47;39;26
54587;PMS7003;40484;50.198;19.576;2023-04-29T13:24:03;30;29;21
54587;PMS7003;40484;50.198;19.576;2023-04-29T13:29:05;35;31;21
54587;PMS7003;40484;50.198;19.576;2023-04-29T13:34:06;36;31;21
54587;PMS7003;40484;50.198;19.576;2023-04-29T13:39:08;33;31;21
54587;PMS7003;40484;50.198;19.576;2023-04-29T13:44:10;47;36;22
54587;PMS7003;40484;50.198;19.576;2023-04-29T13:49:11;34;31;20
54587;PMS7003;40484;50.198;19.576;2023-04-29T13:54:13;31;29;21
54587;PMS7003;40484;50.198;19.576;2023-04-29T13:59:14;33;30;19
54587;PMS7003;40484;50.198;19.576;2023-04-29T14:04:16;39;34;23
54587;PMS7003;40484;50.198;19.576;2023-04-29T14:09:18;36;32;21
54587;PMS7003;40484;50.198;19.576;2023-04-29T14:14:20;24;23;17
54587;PMS7003;40484;50.198;19.576;2023-04-29T14:19:46;23;23;17
54587;PMS7003;40484;50.198;19.576;2023-04-29T14:24:47;20;17;11
54587;PMS7003;40484;50.198;19.576;2023-04-29T14:29:49;13;13;10
54587;PMS7003;40484;50.198;19.576;2023-04-29T14:34:50;18;17;10
54587;PMS7003;40484;50.198;19.576;2023-04-29T14:39:51;20;18;14
54587;PMS7003;40484;50.198;19.576;2023-04-29T14:44:53;36;26;18
54587;PMS7003;40484;50.198;19.576;2023-04-29T14:49:54;26;23;14
54587;PMS7003;40484;50.198;19.576;2023-04-29T14:54:56;19;19;15
54587;PMS7003;40484;50.198;19.576;2023-04-29T14:59:57;41;35;19
54587;PMS7003;40484;50.198;19.576;2023-04-29T15:04:59;20;16;11
54587;PMS7003;40484;50.198;19.576;2023-04-29T15:10:02;15;15;11
54587;PMS7003;40484;50.198;19.576;2023-04-29T15:15:06;16;14;9
54587;PMS7003;40484;50.198;19.576;2023-04-29T15:20:09;16;16;10
54587;PMS7003;40484;50.198;19.576;2023-04-29T15:25:11;20;19;14
54587;PMS7003;40484;50.198;19.576;2023-04-29T15:30:12;9;9;7
54587;PMS7003;40484;50.198;19.576;2023-04-29T15:35:14;11;11;8
54587;PMS7003;40484;50.198;19.576;2023-04-29T15:40:16;17;13;10
54587;PMS7003;40484;50.198;19.576;2023-04-29T15:45:17;12;11;9
54587;PMS7003;40484;50.198;19.576;2023-04-29T15:50:19;13;12;10
54587;PMS7003;40484;50.198;19.576;2023-04-29T15:55:21;12;12;9
54587;PMS7003;40484;50.198;19.576;2023-04-29T16:00:22;15;13;9
54587;PMS7003;40484;50.198;19.576;2023-04-29T16:05:50;7;7;6
54587;PMS7003;40484;50.198;19.576;2023-04-29T16:10:51;9;9;7
54587;PMS7003;40484;50.198;19.576;2023-04-29T16:15:53;9;8;6
54587;PMS7003;40484;50.198;19.576;2023-04-29T16:20:55;12;10;9
54587;PMS7003;40484;50.198;19.576;2023-04-29T16:25:56;25;23;15
54587;PMS7003;40484;50.198;19.576;2023-04-29T16:30:58;20;19;16
54587;PMS7003;40484;50.198;19.576;2023-04-29T16:35:59;20;19;15
54587;PMS7003;40484;50.198;19.576;2023-04-29T16:41:02;23;23;18
54587;PMS7003;40484;50.198;19.576;2023-04-29T16:46:04;17;14;11
54587;PMS7003;40484;50.198;19.576;2023-04-29T16:51:06;19;18;13
54587;PMS7003;40484;50.198;19.576;2023-04-29T16:56:07;14;14;12
54587;PMS7003;40484;50.198;19.576;2023-04-29T17:01:09;18;18;13
54587;PMS7003;40484;50.198;19.576;2023-04-29T17:06:11;12;11;9
54587;PMS7003;40484;50.198;19.576;2023-04-29T17:11:14;11;11;8
54587;PMS7003;40484;50.198;19.576;2023-04-29T17:16:17;9;9;7
54587;PMS7003;40484;50.198;19.576;2023-04-29T17:21:19;8;8;6
54587;PMS7003;40484;50.198;19.576;2023-04-29T17:26:25;9;9;8
54587;PMS7003;40484;50.198;19.576;2023-04-29T17:31:26;11;11;9
54587;PMS7003;40484;50.198;19.576;2023-04-29T17:36:30;2;2;2
54587;PMS7003;40484;50.198;19.576;2023-04-29T17:41:32;37;33;23
54587;PMS7003;40484;50.198;19.576;2023-04-29T17:46:58;36;31;20
54587;PMS7003;40484;50.198;19.576;2023-04-29T17:52:00;59;47;29
54587;PMS7003;40484;50.198;19.576;2023-04-29T17:57:03;37;32;21
54587;PMS7003;40484;50.198;19.576;2023-04-29T18:02:04;49;40;25
54587;PMS7003;40484;50.198;19.576;2023-04-29T18:07:06;54;43;27
54587;PMS7003;40484;50.198;19.576;2023-04-29T18:12:08;45;37;24
54587;PMS7003;40484;50.198;19.576;2023-04-29T18:17:09;26;26;18
54587;PMS7003;40484;50.198;19.576;2023-04-29T18:22:11;27;26;19
54587;PMS7003;40484;50.198;19.576;2023-04-29T18:27:12;21;19;13
54587;PMS7003;40484;50.198;19.576;2023-04-29T18:32:14;18;17;13
54587;PMS7003;40484;50.198;19.576;2023-04-29T18:37:15;21;20;15
54587;PMS7003;40484;50.198;19.576;2023-04-29T18:42:17;24;23;16
54587;PMS7003;40484;50.198;19.576;2023-04-29T18:47:18;24;22;16
54587;PMS7003;40484;50.198;19.576;2023-04-29T18:52:20;28;24;15
54587;PMS7003;40484;50.198;19.576;2023-04-29T18:57:21;28;27;19
54587;PMS7003;40484;50.198;19.576;2023-04-29T19:02:23;27;26;18
54587;PMS7003;40484;50.198;19.576;2023-04-29T19:07:24;25;24;18
54587;PMS7003;40484;50.198;19.576;2023-04-29T19:12:26;21;20;16
54587;PMS7003;40484;50.198;19.576;2023-04-29T19:17:27;24;22;16
54587;PMS7003;40484;50.198;19.576;2023-04-29T19:22:29;21;21;15
54587;PMS7003;40484;50.198;19.576;2023-04-29T19:27:31;17;16;12
54587;PMS7003;40484;50.198;19.576;2023-04-29T19:32:32;18;15;11
54587;PMS7003;40484;50.198;19.576;2023-04-29T19:37:58;16;15;11
54587;PMS7003;40484;50.198;19.576;2023-04-29T19:43:00;15;13;10
54587;PMS7003;40484;50.198;19.576;2023-04-29T19:48:01;14;14;11
54587;PMS7003;40484;50.198;19.576;2023-04-29T19:53:03;14;13;10
54587;PMS7003;40484;50.198;19.576;2023-04-29T19:58:04;45;34;23
54587;PMS7003;40484;50.198;19.576;2023-04-29T20:03:06;63;51;32
54587;PMS7003;40484;50.198;19.576;2023-04-29T20:08:07;43;36;23
54587;PMS7003;40484;50.198;19.576;2023-04-29T20:13:09;37;33;22
54587;PMS7003;40484;50.198;19.576;2023-04-29T20:18:10;50;41;27
54587;PMS7003;40484;50.198;19.576;2023-04-29T20:23:12;42;37;25
54587;PMS7003;40484;50.198;19.576;2023-04-29T20:28:13;39;34;22
54587;PMS7003;40484;50.198;19.576;2023-04-29T20:33:15;45;38;24
54587;PMS7003;40484;50.198;19.576;2023-04-29T20:38:17;43;36;24
54587;PMS7003;40484;50.198;19.576;2023-04-29T20:43:19;41;35;23
54587;PMS7003;40484;50.198;19.576;2023-04-29T20:48:20;38;34;21
54587;PMS7003;40484;50.198;19.576;2023-04-29T20:53:22;43;36;24
54587;PMS7003;40484;50.198;19.576;2023-04-29T20:58:23;37;32;22
54587;PMS7003;40484;50.198;19.576;2023-04-29T21:03:25;30;30;20
54587;PMS7003;40484;50.198;19.576;2023-04-29T21:08:26;36;32;21
54587;PMS7003;40484;50.198;19.576;2023-04-29T21:13:28;46;39;25
54587;PMS7003;40484;50.198;19.576;2023-04-29T21:18:30;40;35;23
54587;PMS7003;40484;50.198;19.576;2023-04-29T21:23:31;51;40;27
54587;PMS7003;40484;50.198;19.576;2023-04-29T21:28:58;45;38;23
54587;PMS7003;40484;50.198;19.576;2023-04-29T21:34:00;50;41;27
54587;PMS7003;40484;50.198;19.576;2023-04-29T21:39:01;34;31;21
54587;PMS7003;40484;50.198;19.576;2023-04-29T21:44:03;29;29;20
54587;PMS7003;40484;50.198;19.576;2023-04-29T21:49:05;28;27;18
54587;PMS7003;40484;50.198;19.576;2023-04-29T21:54:07;28;26;14
54587;PMS7003;40484;50.198;19.576;2023-04-29T21:59:08;26;26;17
54587;PMS7003;40484;50.198;19.576;2023-04-29T22:04:10;27;26;18
54587;PMS7003;40484;50.198;19.576;2023-04-29T22:09:11;24;24;17
54587;PMS7003;40484;50.198;19.576;2023-04-29T22:14:13;30;26;16
54587;PMS7003;40484;50.198;19.576;2023-04-29T22:19:14;28;23;16
54587;PMS7003;40484;50.198;19.576;2023-04-29T22:24:16;26;25;19
54587;PMS7003;40484;50.198;19.576;2023-04-29T22:29:17;18;17;14
54587;PMS7003;40484;50.198;19.576;2023-04-29T22:34:20;23;22;17
54587;PMS7003;40484;50.198;19.576;2023-04-29T22:39:21;20;20;15
54587;PMS7003;40484;50.198;19.576;2023-04-29T22:44:23;21;19;13
54587;PMS7003;40484;50.198;19.576;2023-04-29T22:49:25;20;19;13
54587;PMS7003;40484;50.198;19.576;2023-04-29T22:54:27;22;21;12
54587;PMS7003;40484;50.198;19.576;2023-04-29T22:59:29;31;29;16
54587;PMS7003;40484;50.198;19.576;2023-04-29T23:04:30;21;19;15
54587;PMS7003;40484;50.198;19.576;2023-04-29T23:09:32;21;20;14
54587;PMS7003;40484;50.198;19.576;2023-04-29T23:14:34;23;21;15
54587;PMS7003;40484;50.198;19.576;2023-04-29T23:20:00;26;22;14
54587;PMS7003;40484;50.198;19.576;2023-04-29T23:25:01;21;21;15
54587;PMS7003;40484;50.198;19.576;2023-04-29T23:30:03;21;19;13
54587;PMS7003;40484;50.198;19.576;2023-04-29T23:35:05;24;23;14
54587;PMS7003;40484;50.198;19.576;2023-04-29T23:40:07;17;15;9
54587;PMS7003;40484;50.198;19.576;2023-04-29T23:45:09;18;17;12
54587;PMS7003;40484;50.198;19.576;2023-04-29T23:50:10;20;17;12
54587;PMS7003;40484;50.198;19.576;2023-04-29T23:55:12;26;23;16
